Friday, January 19, 2018, 8:14 PM EST
Back to Local

KELZ, Wellsville Municipal Airport

Location: Wellsville, NY, United States Lat: 42.1
Local Time: 8:14 PM EST ( 1:14 GMT) Lon: -78
Time Zone: US/Eastern Elev: 2122 ft

Show me the last for .
Show Decoded

2018-01-19 18:56 METAR KELZ 192356Z AUTO 23015G20KT 10SM CLR 01/M07 A2985 RMK AO2 SLP133
                 T00111072 10033 20006 58006 $ =
2018-01-19 17:56 METAR KELZ 192256Z AUTO 23011G18KT 10SM CLR 01/M07 A2985 RMK AO2 SLP133
                 T00111072 $ =
2018-01-19 16:56 METAR KELZ 192156Z AUTO 23008G16KT 10SM CLR 02/M07 A2987 RMK AO2 SLP141
                 T00171072 $ =
2018-01-19 15:56 METAR KELZ 192056Z AUTO 23009G17KT 10SM CLR 03/M07 A2987 RMK AO2 SLP138
                 T00331072 55000 $ =
2018-01-19 14:56 METAR KELZ 191956Z AUTO 23009G17KT 10SM CLR 03/M07 A2986 RMK AO2 SLP135
                 T00281072 $ =
2018-01-19 13:56 METAR KELZ 191856Z AUTO 25010G18KT 210V290 10SM CLR 02/M08 A2985 RMK AO2 SLP134
                 T00221078 $ =
2018-01-19 12:56 METAR KELZ 191756Z AUTO 23010KT 10SM CLR 01/M08 A2987 RMK AO2 SLP140 T00061083
                 10006 21078 58017 $ =
2018-01-19 11:56 METAR KELZ 191656Z AUTO 23012G17KT 10SM CLR M02/M09 A2989 RMK AO2 SLP152
                 T10171094 $ =
2018-01-19 10:56 METAR KELZ 191556Z AUTO 25010G16KT 210V270 10SM CLR M04/M11 A2992 RMK AO2 SLP163
                 T10391106 $ =
2018-01-19 09:56 METAR KELZ 191456Z AUTO 25013G18KT 10SM CLR M06/M11 A2992 RMK AO2 SLP164
                 T10561111 58001 $ =
2018-01-19 08:56 METAR KELZ 191356Z AUTO 24012G19KT 10SM CLR M07/M12 A2993 RMK AO2 SLP167
                 T10671117 $ =
2018-01-19 07:56 METAR KELZ 191256Z AUTO 25009G18KT 10SM CLR M07/M12 A2992 RMK AO2 SLP167
                 T10721122 $ =
2018-01-19 06:56 METAR KELZ 191156Z AUTO 25012G17KT 10SM CLR M07/M12 A2992 RMK AO2 SLP167
                 T10721122 11061 21072 51004 $ =
2018-01-19 05:56 METAR KELZ 191056Z AUTO 24012G18KT 10SM CLR M07/M12 A2992 RMK AO2 SLP167
                 T10721117 $ =
2018-01-19 04:56 METAR KELZ 190956Z AUTO 25010KT 10SM CLR M07/M12 A2992 RMK AO2 SLP166 T10721117
                 $ =
2018-01-19 03:56 METAR KELZ 190856Z AUTO 24009G15KT 10SM CLR M07/M12 A2991 RMK AO2 SLP163
                 T10671117 $ =
2018-01-19 02:56 METAR KELZ 190756Z AUTO 24010G17KT 10SM CLR M07/M12 A2991 RMK AO2 SLP163
                 T10671117 $ =
2018-01-19 01:56 METAR KELZ 190656Z AUTO 24013G19KT 10SM CLR M07/M12 A2991 RMK AO2 SLP163
                 T10671117 $ =
2018-01-19 00:56 METAR KELZ 190556Z AUTO 25009G17KT 10SM CLR M06/M12 A2991 RMK AO2 SLP163
                 T10611117 11061 21067 55004 $ =
2018-01-18 23:56 METAR KELZ 190456Z AUTO 24013G19KT 10SM CLR M06/M12 A2990 RMK AO2 SLP162
                 T10611117 410611133 $ =
2018-01-18 22:56 METAR KELZ 190356Z AUTO 25012G23KT 10SM CLR M06/M12 A2991 RMK AO2 PK WND
                 23027/0342 SLP165 T10611117 $ =
2018-01-18 21:56 METAR KELZ 190256Z AUTO 23011G21KT 10SM CLR M06/M12 A2992 RMK AO2 SLP169
                 T10611117 58002 $ =
2018-01-18 20:56 METAR KELZ 190156Z AUTO 25010G17KT 10SM CLR M07/M12 A2993 RMK AO2 SLP176
                 T10671117 $ =

Support USWX by starting your Amazon purchase here.